sensor_id;sensor_type;location;lat;lon;timestamp;P1;durP1;ratioP1;P2;durP2;ratioP2
17854;SDS011;9053;53.358;6.382;2023-07-31T00:02:18;2.40;;;1.27;;
17854;SDS011;9053;53.358;6.382;2023-07-31T00:04:49;2.70;;;1.40;;
17854;SDS011;9053;53.358;6.382;2023-07-31T00:07:20;3.20;;;1.40;;
17854;SDS011;9053;53.358;6.382;2023-07-31T00:09:50;3.15;;;1.10;;
17854;SDS011;9053;53.358;6.382;2023-07-31T00:12:20;1.67;;;1.13;;
17854;SDS011;9053;53.358;6.382;2023-07-31T00:14:50;3.58;;;1.25;;
17854;SDS011;9053;53.358;6.382;2023-07-31T00:17:22;2.75;;;1.20;;
17854;SDS011;9053;53.358;6.382;2023-07-31T00:19:52;4.70;;;1.40;;
17854;SDS011;9053;53.358;6.382;2023-07-31T00:22:22;2.70;;;1.30;;
17854;SDS011;9053;53.358;6.382;2023-07-31T00:24:52;2.75;;;1.27;;
17854;SDS011;9053;53.358;6.382;2023-07-31T00:27:23;2.47;;;1.48;;
17854;SDS011;9053;53.358;6.382;2023-07-31T00:29:53;2.92;;;1.48;;
17854;SDS011;9053;53.358;6.382;2023-07-31T00:32:25;2.67;;;1.33;;
17854;SDS011;9053;53.358;6.382;2023-07-31T00:34:55;2.92;;;1.40;;
17854;SDS011;9053;53.358;6.382;2023-07-31T00:37:25;3.00;;;1.35;;
17854;SDS011;9053;53.358;6.382;2023-07-31T00:39:55;2.38;;;1.20;;
17854;SDS011;9053;53.358;6.382;2023-07-31T00:42:25;2.75;;;1.35;;
17854;SDS011;9053;53.358;6.382;2023-07-31T00:44:55;1.83;;;1.40;;
17854;SDS011;9053;53.358;6.382;2023-07-31T00:47:27;2.03;;;1.20;;
17854;SDS011;9053;53.358;6.382;2023-07-31T00:49:58;2.35;;;1.30;;
17854;SDS011;9053;53.358;6.382;2023-07-31T00:52:28;3.10;;;1.40;;
17854;SDS011;9053;53.358;6.382;2023-07-31T00:54:58;3.03;;;1.42;;
17854;SDS011;9053;53.358;6.382;2023-07-31T00:57:28;3.95;;;1.30;;
17854;SDS011;9053;53.358;6.382;2023-07-31T00:59:58;3.05;;;1.30;;
17854;SDS011;9053;53.358;6.382;2023-07-31T01:02:33;3.17;;;1.50;;
17854;SDS011;9053;53.358;6.382;2023-07-31T01:05:03;2.78;;;1.40;;
17854;SDS011;9053;53.358;6.382;2023-07-31T01:07:35;3.35;;;1.40;;
17854;SDS011;9053;53.358;6.382;2023-07-31T01:10:15;3.65;;;1.40;;
17854;SDS011;9053;53.358;6.382;2023-07-31T01:12:50;3.25;;;1.70;;
17854;SDS011;9053;53.358;6.382;2023-07-31T01:15:20;3.35;;;1.45;;
17854;SDS011;9053;53.358;6.382;2023-07-31T01:17:53;1.65;;;1.30;;
17854;SDS011;9053;53.358;6.382;2023-07-31T01:20:23;3.95;;;1.60;;
17854;SDS011;9053;53.358;6.382;2023-07-31T01:23:07;2.95;;;1.38;;
17854;SDS011;9053;53.358;6.382;2023-07-31T01:28:47;3.10;;;1.90;;
17854;SDS011;9053;53.358;6.382;2023-07-31T01:31:24;2.15;;;1.52;;
17854;SDS011;9053;53.358;6.382;2023-07-31T01:33:56;2.92;;;1.63;;
17854;SDS011;9053;53.358;6.382;2023-07-31T01:36:30;3.88;;;2.15;;
17854;SDS011;9053;53.358;6.382;2023-07-31T01:39:00;3.28;;;1.52;;
17854;SDS011;9053;53.358;6.382;2023-07-31T01:41:33;4.93;;;1.50;;
17854;SDS011;9053;53.358;6.382;2023-07-31T01:44:04;2.50;;;1.60;;
17854;SDS011;9053;53.358;6.382;2023-07-31T01:46:34;2.85;;;1.70;;
17854;SDS011;9053;53.358;6.382;2023-07-31T01:49:05;4.72;;;2.17;;
17854;SDS011;9053;53.358;6.382;2023-07-31T01:51:35;3.75;;;2.08;;
17854;SDS011;9053;53.358;6.382;2023-07-31T01:54:05;3.17;;;1.60;;
17854;SDS011;9053;53.358;6.382;2023-07-31T01:56:38;4.07;;;1.60;;
17854;SDS011;9053;53.358;6.382;2023-07-31T01:59:08;3.50;;;1.95;;
17854;SDS011;9053;53.358;6.382;2023-07-31T02:01:38;2.80;;;1.70;;
17854;SDS011;9053;53.358;6.382;2023-07-31T02:04:08;4.43;;;1.70;;
17854;SDS011;9053;53.358;6.382;2023-07-31T02:06:38;3.90;;;1.70;;
17854;SDS011;9053;53.358;6.382;2023-07-31T02:09:08;5.03;;;2.30;;
17854;SDS011;9053;53.358;6.382;2023-07-31T02:11:40;3.58;;;2.17;;
17854;SDS011;9053;53.358;6.382;2023-07-31T02:14:10;3.08;;;1.70;;
17854;SDS011;9053;53.358;6.382;2023-07-31T02:16:43;4.45;;;2.00;;
17854;SDS011;9053;53.358;6.382;2023-07-31T02:19:13;3.78;;;2.20;;
17854;SDS011;9053;53.358;6.382;2023-07-31T02:21:43;2.88;;;1.50;;
17854;SDS011;9053;53.358;6.382;2023-07-31T02:24:13;2.75;;;1.75;;
17854;SDS011;9053;53.358;6.382;2023-07-31T02:26:46;3.55;;;1.80;;
17854;SDS011;9053;53.358;6.382;2023-07-31T02:29:17;2.85;;;1.55;;
17854;SDS011;9053;53.358;6.382;2023-07-31T02:31:47;2.30;;;1.83;;
17854;SDS011;9053;53.358;6.382;2023-07-31T02:34:17;2.25;;;1.50;;
17854;SDS011;9053;53.358;6.382;2023-07-31T02:36:47;3.30;;;1.70;;
17854;SDS011;9053;53.358;6.382;2023-07-31T02:39:18;2.78;;;1.50;;
17854;SDS011;9053;53.358;6.382;2023-07-31T02:41:50;3.67;;;1.80;;
17854;SDS011;9053;53.358;6.382;2023-07-31T02:44:20;2.83;;;1.60;;
17854;SDS011;9053;53.358;6.382;2023-07-31T02:46:50;4.20;;;2.20;;
17854;SDS011;9053;53.358;6.382;2023-07-31T02:49:20;3.03;;;1.70;;
17854;SDS011;9053;53.358;6.382;2023-07-31T02:51:50;2.60;;;1.80;;
17854;SDS011;9053;53.358;6.382;2023-07-31T02:54:20;4.13;;;1.98;;
17854;SDS011;9053;53.358;6.382;2023-07-31T02:56:53;3.60;;;1.60;;
17854;SDS011;9053;53.358;6.382;2023-07-31T02:59:22;5.38;;;1.92;;
17854;SDS011;9053;53.358;6.382;2023-07-31T03:01:52;3.13;;;1.45;;
17854;SDS011;9053;53.358;6.382;2023-07-31T03:04:22;4.00;;;1.60;;
17854;SDS011;9053;53.358;6.382;2023-07-31T03:06:52;3.20;;;2.08;;
17854;SDS011;9053;53.358;6.382;2023-07-31T03:09:22;2.58;;;1.42;;
17854;SDS011;9053;53.358;6.382;2023-07-31T03:11:55;4.10;;;1.60;;
17854;SDS011;9053;53.358;6.382;2023-07-31T03:14:24;2.90;;;1.58;;
17854;SDS011;9053;53.358;6.382;2023-07-31T03:16:55;4.18;;;1.88;;
17854;SDS011;9053;53.358;6.382;2023-07-31T03:19:26;4.82;;;1.80;;
17854;SDS011;9053;53.358;6.382;2023-07-31T03:21:56;3.30;;;1.50;;
17854;SDS011;9053;53.358;6.382;2023-07-31T03:24:26;3.30;;;1.80;;
17854;SDS011;9053;53.358;6.382;2023-07-31T03:27:00;3.78;;;1.40;;
17854;SDS011;9053;53.358;6.382;2023-07-31T03:29:30;2.15;;;1.30;;
17854;SDS011;9053;53.358;6.382;2023-07-31T03:32:00;2.33;;;1.67;;
17854;SDS011;9053;53.358;6.382;2023-07-31T03:34:30;3.17;;;1.27;;
17854;SDS011;9053;53.358;6.382;2023-07-31T03:37:00;4.32;;;1.50;;
17854;SDS011;9053;53.358;6.382;2023-07-31T03:39:31;2.33;;;1.30;;
17854;SDS011;9053;53.358;6.382;2023-07-31T03:42:04;3.38;;;1.33;;
17854;SDS011;9053;53.358;6.382;2023-07-31T03:44:35;3.65;;;1.30;;
17854;SDS011;9053;53.358;6.382;2023-07-31T03:47:05;2.88;;;1.30;;
17854;SDS011;9053;53.358;6.382;2023-07-31T03:49:35;2.47;;;1.48;;
17854;SDS011;9053;53.358;6.382;2023-07-31T03:52:06;1.98;;;1.30;;
17854;SDS011;9053;53.358;6.382;2023-07-31T03:54:36;2.58;;;1.35;;
17854;SDS011;9053;53.358;6.382;2023-07-31T03:57:08;2.00;;;1.42;;
17854;SDS011;9053;53.358;6.382;2023-07-31T03:59:38;3.80;;;1.42;;
17854;SDS011;9053;53.358;6.382;2023-07-31T04:02:08;1.40;;;1.20;;
17854;SDS011;9053;53.358;6.382;2023-07-31T04:04:41;1.27;;;1.17;;
17854;SDS011;9053;53.358;6.382;2023-07-31T04:07:12;3.05;;;1.50;;
17854;SDS011;9053;53.358;6.382;2023-07-31T04:09:42;3.00;;;1.42;;
17854;SDS011;9053;53.358;6.382;2023-07-31T04:12:15;1.70;;;1.40;;
17854;SDS011;9053;53.358;6.382;2023-07-31T04:14:44;1.95;;;1.08;;
17854;SDS011;9053;53.358;6.382;2023-07-31T04:17:14;2.60;;;1.33;;
17854;SDS011;9053;53.358;6.382;2023-07-31T04:19:44;2.28;;;1.50;;
17854;SDS011;9053;53.358;6.382;2023-07-31T04:22:14;2.88;;;1.40;;
17854;SDS011;9053;53.358;6.382;2023-07-31T04:24:44;2.88;;;1.38;;
17854;SDS011;9053;53.358;6.382;2023-07-31T04:27:17;1.83;;;1.02;;
17854;SDS011;9053;53.358;6.382;2023-07-31T04:29:47;2.05;;;1.08;;
17854;SDS011;9053;53.358;6.382;2023-07-31T04:32:17;2.63;;;1.05;;
17854;SDS011;9053;53.358;6.382;2023-07-31T04:34:47;2.05;;;1.10;;
17854;SDS011;9053;53.358;6.382;2023-07-31T04:37:17;2.25;;;1.00;;
17854;SDS011;9053;53.358;6.382;2023-07-31T04:39:47;1.23;;;0.88;;
17854;SDS011;9053;53.358;6.382;2023-07-31T04:42:19;1.77;;;0.73;;
17854;SDS011;9053;53.358;6.382;2023-07-31T04:44:49;3.10;;;0.90;;
17854;SDS011;9053;53.358;6.382;2023-07-31T04:47:19;0.98;;;0.80;;
17854;SDS011;9053;53.358;6.382;2023-07-31T04:49:49;1.42;;;0.80;;
17854;SDS011;9053;53.358;6.382;2023-07-31T04:52:19;1.25;;;0.80;;
17854;SDS011;9053;53.358;6.382;2023-07-31T04:54:49;1.58;;;0.63;;
17854;SDS011;9053;53.358;6.382;2023-07-31T04:57:22;0.75;;;0.60;;
17854;SDS011;9053;53.358;6.382;2023-07-31T04:59:51;1.20;;;0.70;;
17854;SDS011;9053;53.358;6.382;2023-07-31T05:02:21;0.68;;;0.60;;
17854;SDS011;9053;53.358;6.382;2023-07-31T05:04:53;0.90;;;0.70;;
17854;SDS011;9053;53.358;6.382;2023-07-31T05:07:23;0.50;;;0.50;;
17854;SDS011;9053;53.358;6.382;2023-07-31T05:09:52;0.80;;;0.60;;
17854;SDS011;9053;53.358;6.382;2023-07-31T05:12:26;0.60;;;0.40;;
17854;SDS011;9053;53.358;6.382;2023-07-31T05:14:56;0.98;;;0.63;;
17854;SDS011;9053;53.358;6.382;2023-07-31T05:17:26;1.40;;;0.70;;
17854;SDS011;9053;53.358;6.382;2023-07-31T05:19:56;0.70;;;0.60;;
17854;SDS011;9053;53.358;6.382;2023-07-31T05:22:26;0.98;;;0.80;;
17854;SDS011;9053;53.358;6.382;2023-07-31T05:24:56;0.90;;;0.70;;
17854;SDS011;9053;53.358;6.382;2023-07-31T05:27:29;0.80;;;0.52;;
17854;SDS011;9053;53.358;6.382;2023-07-31T05:29:59;1.52;;;0.60;;
17854;SDS011;9053;53.358;6.382;2023-07-31T05:32:29;0.68;;;0.60;;
17854;SDS011;9053;53.358;6.382;2023-07-31T05:34:59;0.95;;;0.60;;
17854;SDS011;9053;53.358;6.382;2023-07-31T05:37:29;1.45;;;0.70;;
17854;SDS011;9053;53.358;6.382;2023-07-31T05:39:59;1.48;;;0.98;;
17854;SDS011;9053;53.358;6.382;2023-07-31T05:42:32;1.85;;;1.15;;
17854;SDS011;9053;53.358;6.382;2023-07-31T05:45:04;1.80;;;1.10;;
17854;SDS011;9053;53.358;6.382;2023-07-31T05:47:35;2.10;;;1.40;;
17854;SDS011;9053;53.358;6.382;2023-07-31T05:50:06;2.28;;;1.40;;
17854;SDS011;9053;53.358;6.382;2023-07-31T05:52:36;2.53;;;1.25;;
17854;SDS011;9053;53.358;6.382;2023-07-31T05:55:06;1.20;;;1.10;;
17854;SDS011;9053;53.358;6.382;2023-07-31T05:57:39;2.38;;;1.20;;
17854;SDS011;9053;53.358;6.382;2023-07-31T06:00:10;2.13;;;1.02;;
17854;SDS011;9053;53.358;6.382;2023-07-31T06:02:41;1.73;;;1.20;;
17854;SDS011;9053;53.358;6.382;2023-07-31T06:05:12;1.55;;;1.10;;
17854;SDS011;9053;53.358;6.382;2023-07-31T06:07:42;1.48;;;1.20;;
17854;SDS011;9053;53.358;6.382;2023-07-31T06:10:12;1.98;;;1.25;;
17854;SDS011;9053;53.358;6.382;2023-07-31T06:12:45;1.77;;;1.23;;
17854;SDS011;9053;53.358;6.382;2023-07-31T06:15:15;2.13;;;1.30;;
17854;SDS011;9053;53.358;6.382;2023-07-31T06:17:45;1.70;;;1.10;;
17854;SDS011;9053;53.358;6.382;2023-07-31T06:20:15;2.33;;;1.40;;
17854;SDS011;9053;53.358;6.382;2023-07-31T06:22:46;2.40;;;1.67;;
17854;SDS011;9053;53.358;6.382;2023-07-31T06:25:16;3.95;;;2.20;;
17854;SDS011;9053;53.358;6.382;2023-07-31T06:27:49;6.75;;;2.20;;
17854;SDS011;9053;53.358;6.382;2023-07-31T06:30:19;3.80;;;2.45;;
17854;SDS011;9053;53.358;6.382;2023-07-31T06:32:49;2.83;;;2.08;;
17854;SDS011;9053;53.358;6.382;2023-07-31T06:35:19;2.40;;;1.90;;
17854;SDS011;9053;53.358;6.382;2023-07-31T06:37:49;3.10;;;1.80;;
17854;SDS011;9053;53.358;6.382;2023-07-31T06:40:18;2.05;;;1.60;;
17854;SDS011;9053;53.358;6.382;2023-07-31T06:42:51;2.75;;;1.73;;
17854;SDS011;9053;53.358;6.382;2023-07-31T06:45:21;3.22;;;1.98;;
17854;SDS011;9053;53.358;6.382;2023-07-31T06:47:51;3.72;;;2.20;;
17854;SDS011;9053;53.358;6.382;2023-07-31T06:50:21;3.17;;;1.83;;
17854;SDS011;9053;53.358;6.382;2023-07-31T06:52:51;3.83;;;2.20;;
17854;SDS011;9053;53.358;6.382;2023-07-31T06:55:21;2.63;;;1.88;;
17854;SDS011;9053;53.358;6.382;2023-07-31T06:57:54;4.63;;;2.10;;
17854;SDS011;9053;53.358;6.382;2023-07-31T07:00:25;3.20;;;2.00;;
17854;SDS011;9053;53.358;6.382;2023-07-31T07:02:56;3.70;;;1.80;;
17854;SDS011;9053;53.358;6.382;2023-07-31T07:05:27;2.83;;;1.70;;
17854;SDS011;9053;53.358;6.382;2023-07-31T07:07:57;4.18;;;1.98;;
17854;SDS011;9053;53.358;6.382;2023-07-31T07:10:27;3.20;;;2.20;;
17854;SDS011;9053;53.358;6.382;2023-07-31T07:13:00;2.80;;;1.88;;
17854;SDS011;9053;53.358;6.382;2023-07-31T07:15:30;2.75;;;1.85;;
17854;SDS011;9053;53.358;6.382;2023-07-31T07:18:00;2.08;;;1.60;;
17854;SDS011;9053;53.358;6.382;2023-07-31T07:20:30;2.78;;;1.60;;
17854;SDS011;9053;53.358;6.382;2023-07-31T07:23:00;2.05;;;1.50;;
17854;SDS011;9053;53.358;6.382;2023-07-31T07:25:30;3.03;;;1.98;;
17854;SDS011;9053;53.358;6.382;2023-07-31T07:28:02;4.70;;;2.97;;
17854;SDS011;9053;53.358;6.382;2023-07-31T07:30:33;4.80;;;2.30;;
17854;SDS011;9053;53.358;6.382;2023-07-31T07:33:03;5.20;;;2.70;;
17854;SDS011;9053;53.358;6.382;2023-07-31T07:35:34;5.60;;;2.42;;
17854;SDS011;9053;53.358;6.382;2023-07-31T07:38:04;4.18;;;2.90;;
17854;SDS011;9053;53.358;6.382;2023-07-31T07:40:37;5.80;;;2.72;;
17854;SDS011;9053;53.358;6.382;2023-07-31T07:43:11;3.95;;;2.65;;
17854;SDS011;9053;53.358;6.382;2023-07-31T07:45:41;4.70;;;2.65;;
17854;SDS011;9053;53.358;6.382;2023-07-31T07:48:11;4.57;;;2.50;;
17854;SDS011;9053;53.358;6.382;2023-07-31T07:50:41;5.40;;;2.50;;
17854;SDS011;9053;53.358;6.382;2023-07-31T07:53:11;4.93;;;2.80;;
17854;SDS011;9053;53.358;6.382;2023-07-31T07:55:41;5.50;;;2.50;;
17854;SDS011;9053;53.358;6.382;2023-07-31T07:58:13;5.22;;;2.10;;
17854;SDS011;9053;53.358;6.382;2023-07-31T08:00:48;6.60;;;3.15;;
17854;SDS011;9053;53.358;6.382;2023-07-31T08:03:18;3.63;;;2.50;;
17854;SDS011;9053;53.358;6.382;2023-07-31T08:05:49;4.15;;;2.00;;
17854;SDS011;9053;53.358;6.382;2023-07-31T08:08:18;3.97;;;2.30;;
17854;SDS011;9053;53.358;6.382;2023-07-31T08:10:48;2.88;;;1.70;;
17854;SDS011;9053;53.358;6.382;2023-07-31T08:13:21;4.47;;;2.22;;
17854;SDS011;9053;53.358;6.382;2023-07-31T08:15:51;2.55;;;1.60;;
17854;SDS011;9053;53.358;6.382;2023-07-31T08:18:21;2.97;;;1.50;;
17854;SDS011;9053;53.358;6.382;2023-07-31T08:20:51;3.00;;;1.60;;
17854;SDS011;9053;53.358;6.382;2023-07-31T08:23:21;3.05;;;1.40;;
17854;SDS011;9053;53.358;6.382;2023-07-31T08:25:51;1.40;;;1.20;;
17854;SDS011;9053;53.358;6.382;2023-07-31T08:28:25;2.88;;;1.63;;
17854;SDS011;9053;53.358;6.382;2023-07-31T08:30:55;4.07;;;1.85;;
17854;SDS011;9053;53.358;6.382;2023-07-31T08:33:25;1.90;;;1.45;;
17854;SDS011;9053;53.358;6.382;2023-07-31T08:35:55;1.85;;;1.50;;
17854;SDS011;9053;53.358;6.382;2023-07-31T08:38:25;1.95;;;1.58;;
17854;SDS011;9053;53.358;6.382;2023-07-31T08:40:56;2.60;;;1.15;;
17854;SDS011;9053;53.358;6.382;2023-07-31T08:43:29;1.98;;;1.08;;
17854;SDS011;9053;53.358;6.382;2023-07-31T08:45:59;1.30;;;0.90;;
17854;SDS011;9053;53.358;6.382;2023-07-31T08:48:32;1.50;;;1.10;;
17854;SDS011;9053;53.358;6.382;2023-07-31T08:51:02;0.80;;;0.80;;
17854;SDS011;9053;53.358;6.382;2023-07-31T08:53:32;1.20;;;0.68;;
17854;SDS011;9053;53.358;6.382;2023-07-31T08:56:02;1.00;;;0.70;;
17854;SDS011;9053;53.358;6.382;2023-07-31T08:58:35;1.02;;;0.65;;
17854;SDS011;9053;53.358;6.382;2023-07-31T09:01:06;0.90;;;0.55;;
17854;SDS011;9053;53.358;6.382;2023-07-31T09:03:37;0.85;;;0.50;;
17854;SDS011;9053;53.358;6.382;2023-07-31T09:06:11;0.50;;;0.40;;
17854;SDS011;9053;53.358;6.382;2023-07-31T09:08:42;0.88;;;0.50;;
17854;SDS011;9053;53.358;6.382;2023-07-31T09:11:12;0.55;;;0.50;;
17854;SDS011;9053;53.358;6.382;2023-07-31T09:13:45;0.52;;;0.40;;
17854;SDS011;9053;53.358;6.382;2023-07-31T09:16:16;0.20;;;0.20;;
17854;SDS011;9053;53.358;6.382;2023-07-31T09:18:52;0.40;;;0.25;;
17854;SDS011;9053;53.358;6.382;2023-07-31T09:21:24;0.40;;;0.32;;
17854;SDS011;9053;53.358;6.382;2023-07-31T09:23:55;1.40;;;0.47;;
17854;SDS011;9053;53.358;6.382;2023-07-31T09:26:31;1.45;;;0.40;;
17854;SDS011;9053;53.358;6.382;2023-07-31T09:29:07;0.30;;;0.30;;
17854;SDS011;9053;53.358;6.382;2023-07-31T09:31:48;0.75;;;0.43;;
17854;SDS011;9053;53.358;6.382;2023-07-31T09:34:19;0.95;;;0.43;;
17854;SDS011;9053;53.358;6.382;2023-07-31T09:36:50;2.78;;;0.40;;
17854;SDS011;9053;53.358;6.382;2023-07-31T09:39:20;0.98;;;0.63;;
17854;SDS011;9053;53.358;6.382;2023-07-31T09:41:53;1.25;;;0.75;;
17854;SDS011;9053;53.358;6.382;2023-07-31T09:44:39;1.20;;;0.75;;
17854;SDS011;9053;53.358;6.382;2023-07-31T09:47:20;2.15;;;0.93;;
17854;SDS011;9053;53.358;6.382;2023-07-31T09:49:53;3.10;;;1.40;;
17854;SDS011;9053;53.358;6.382;2023-07-31T09:52:23;1.83;;;1.10;;
17854;SDS011;9053;53.358;6.382;2023-07-31T09:54:55;2.05;;;1.15;;
17854;SDS011;9053;53.358;6.382;2023-07-31T09:57:26;2.08;;;1.10;;
17854;SDS011;9053;53.358;6.382;2023-07-31T09:59:59;2.70;;;1.25;;
17854;SDS011;9053;53.358;6.382;2023-07-31T10:02:36;3.20;;;1.27;;
17854;SDS011;9053;53.358;6.382;2023-07-31T10:05:08;2.92;;;1.25;;
17854;SDS011;9053;53.358;6.382;2023-07-31T10:07:38;2.13;;;1.00;;
17854;SDS011;9053;53.358;6.382;2023-07-31T10:10:11;5.38;;;1.50;;
17854;SDS011;9053;53.358;6.382;2023-07-31T10:12:42;4.93;;;1.60;;
17854;SDS011;9053;53.358;6.382;2023-07-31T10:15:17;3.35;;;1.75;;
17854;SDS011;9053;53.358;6.382;2023-07-31T10:17:50;3.83;;;1.85;;
17854;SDS011;9053;53.358;6.382;2023-07-31T10:20:20;4.03;;;1.80;;
17854;SDS011;9053;53.358;6.382;2023-07-31T10:22:52;3.45;;;1.70;;
17854;SDS011;9053;53.358;6.382;2023-07-31T10:25:24;3.88;;;1.83;;
17854;SDS011;9053;53.358;6.382;2023-07-31T10:27:56;3.50;;;2.05;;
17854;SDS011;9053;53.358;6.382;2023-07-31T10:30:30;4.57;;;2.20;;
17854;SDS011;9053;53.358;6.382;2023-07-31T10:33:04;4.22;;;1.83;;
17854;SDS011;9053;53.358;6.382;2023-07-31T10:35:35;4.22;;;2.00;;
17854;SDS011;9053;53.358;6.382;2023-07-31T10:38:09;3.85;;;1.60;;
17854;SDS011;9053;53.358;6.382;2023-07-31T10:40:40;2.47;;;1.25;;
17854;SDS011;9053;53.358;6.382;2023-07-31T10:43:14;3.53;;;1.35;;
17854;SDS011;9053;53.358;6.382;2023-07-31T10:45:57;2.03;;;1.00;;
17854;SDS011;9053;53.358;6.382;2023-07-31T10:48:32;3.03;;;1.30;;
17854;SDS011;9053;53.358;6.382;2023-07-31T10:51:06;2.38;;;1.33;;
17854;SDS011;9053;53.358;6.382;2023-07-31T10:53:39;3.38;;;1.45;;
17854;SDS011;9053;53.358;6.382;2023-07-31T10:56:09;3.25;;;1.50;;
17854;SDS011;9053;53.358;6.382;2023-07-31T10:58:45;2.95;;;1.48;;
17854;SDS011;9053;53.358;6.382;2023-07-31T11:01:17;2.70;;;1.50;;
17854;SDS011;9053;53.358;6.382;2023-07-31T11:03:48;2.65;;;1.30;;
17854;SDS011;9053;53.358;6.382;2023-07-31T11:06:21;2.75;;;1.30;;
17854;SDS011;9053;53.358;6.382;2023-07-31T11:08:51;2.13;;;1.38;;
17854;SDS011;9053;53.358;6.382;2023-07-31T11:11:20;2.63;;;1.20;;
17854;SDS011;9053;53.358;6.382;2023-07-31T11:13:51;1.55;;;1.30;;
17854;SDS011;9053;53.358;6.382;2023-07-31T11:16:25;1.80;;;1.13;;
17854;SDS011;9053;53.358;6.382;2023-07-31T11:18:57;1.85;;;1.20;;
17854;SDS011;9053;53.358;6.382;2023-07-31T11:21:27;2.55;;;1.05;;
17854;SDS011;9053;53.358;6.382;2023-07-31T11:23:55;2.13;;;1.00;;
17854;SDS011;9053;53.358;6.382;2023-07-31T11:26:26;1.92;;;1.10;;
17854;SDS011;9053;53.358;6.382;2023-07-31T11:28:57;2.30;;;1.17;;
17854;SDS011;9053;53.358;6.382;2023-07-31T11:31:30;1.20;;;1.00;;
17854;SDS011;9053;53.358;6.382;2023-07-31T11:34:05;1.20;;;0.90;;
17854;SDS011;9053;53.358;6.382;2023-07-31T11:36:35;1.23;;;0.90;;
17854;SDS011;9053;53.358;6.382;2023-07-31T11:39:07;1.58;;;0.98;;
17854;SDS011;9053;53.358;6.382;2023-07-31T11:41:40;1.25;;;0.90;;
17854;SDS011;9053;53.358;6.382;2023-07-31T11:44:10;1.20;;;0.90;;
17854;SDS011;9053;53.358;6.382;2023-07-31T11:46:58;2.85;;;1.23;;
17854;SDS011;9053;53.358;6.382;2023-07-31T11:49:30;2.05;;;1.10;;
17854;SDS011;9053;53.358;6.382;2023-07-31T11:52:03;2.75;;;0.90;;
17854;SDS011;9053;53.358;6.382;2023-07-31T11:54:33;2.10;;;1.00;;
17854;SDS011;9053;53.358;6.382;2023-07-31T11:57:03;3.03;;;1.00;;
17854;SDS011;9053;53.358;6.382;2023-07-31T11:59:35;2.13;;;1.30;;
17854;SDS011;9053;53.358;6.382;2023-07-31T12:02:10;1.88;;;1.10;;
17854;SDS011;9053;53.358;6.382;2023-07-31T12:04:42;2.30;;;1.23;;
17854;SDS011;9053;53.358;6.382;2023-07-31T12:07:13;2.75;;;1.85;;
17854;SDS011;9053;53.358;6.382;2023-07-31T12:09:53;1.85;;;1.38;;
17854;SDS011;9053;53.358;6.382;2023-07-31T12:12:24;3.83;;;1.70;;
17854;SDS011;9053;53.358;6.382;2023-07-31T12:14:55;2.65;;;1.30;;
17854;SDS011;9053;53.358;6.382;2023-07-31T12:17:28;3.60;;;1.48;;
17854;SDS011;9053;53.358;6.382;2023-07-31T12:19:58;2.58;;;1.77;;
17854;SDS011;9053;53.358;6.382;2023-07-31T12:22:28;2.13;;;1.38;;
17854;SDS011;9053;53.358;6.382;2023-07-31T12:24:58;4.47;;;1.60;;
17854;SDS011;9053;53.358;6.382;2023-07-31T12:27:32;2.53;;;1.30;;
17854;SDS011;9053;53.358;6.382;2023-07-31T12:30:02;3.25;;;1.52;;
17854;SDS011;9053;53.358;6.382;2023-07-31T12:32:36;1.98;;;1.42;;
17854;SDS011;9053;53.358;6.382;2023-07-31T12:35:06;1.30;;;1.10;;
17854;SDS011;9053;53.358;6.382;2023-07-31T12:37:37;1.67;;;0.98;;
17854;SDS011;9053;53.358;6.382;2023-07-31T12:40:09;2.28;;;1.10;;
17854;SDS011;9053;53.358;6.382;2023-07-31T12:42:41;1.17;;;0.95;;
17854;SDS011;9053;53.358;6.382;2023-07-31T12:45:11;1.23;;;0.90;;
17854;SDS011;9053;53.358;6.382;2023-07-31T12:47:44;2.38;;;1.10;;
17854;SDS011;9053;53.358;6.382;2023-07-31T12:50:14;3.42;;;1.00;;
17854;SDS011;9053;53.358;6.382;2023-07-31T12:52:43;1.63;;;1.10;;
17854;SDS011;9053;53.358;6.382;2023-07-31T12:55:13;2.83;;;1.10;;
17854;SDS011;9053;53.358;6.382;2023-07-31T12:57:44;1.80;;;1.02;;
17854;SDS011;9053;53.358;6.382;2023-07-31T13:00:14;2.20;;;1.30;;
17854;SDS011;9053;53.358;6.382;2023-07-31T13:02:47;2.17;;;1.40;;
17854;SDS011;9053;53.358;6.382;2023-07-31T13:05:18;2.55;;;1.60;;
17854;SDS011;9053;53.358;6.382;2023-07-31T13:07:49;2.65;;;1.60;;
17854;SDS011;9053;53.358;6.382;2023-07-31T13:10:19;2.80;;;1.60;;
17854;SDS011;9053;53.358;6.382;2023-07-31T13:12:49;4.20;;;1.67;;
17854;SDS011;9053;53.358;6.382;2023-07-31T13:15:20;2.53;;;1.70;;
17854;SDS011;9053;53.358;6.382;2023-07-31T13:17:52;2.88;;;1.40;;
17854;SDS011;9053;53.358;6.382;2023-07-31T13:20:22;3.15;;;1.70;;
17854;SDS011;9053;53.358;6.382;2023-07-31T13:22:52;4.15;;;1.95;;
17854;SDS011;9053;53.358;6.382;2023-07-31T13:25:22;3.20;;;1.60;;
17854;SDS011;9053;53.358;6.382;2023-07-31T13:27:52;2.58;;;1.67;;
17854;SDS011;9053;53.358;6.382;2023-07-31T13:30:24;4.15;;;1.73;;
17854;SDS011;9053;53.358;6.382;2023-07-31T13:32:56;3.28;;;2.03;;
17854;SDS011;9053;53.358;6.382;2023-07-31T13:35:26;3.78;;;1.80;;
17854;SDS011;9053;53.358;6.382;2023-07-31T13:37:58;2.95;;;1.60;;
17854;SDS011;9053;53.358;6.382;2023-07-31T13:40:28;5.15;;;2.30;;
17854;SDS011;9053;53.358;6.382;2023-07-31T13:42:57;5.32;;;2.55;;
17854;SDS011;9053;53.358;6.382;2023-07-31T13:45:27;3.35;;;1.88;;
17854;SDS011;9053;53.358;6.382;2023-07-31T13:48:00;3.65;;;1.92;;
17854;SDS011;9053;53.358;6.382;2023-07-31T13:50:30;4.93;;;2.22;;
17854;SDS011;9053;53.358;6.382;2023-07-31T13:53:00;6.03;;;2.60;;
17854;SDS011;9053;53.358;6.382;2023-07-31T13:55:30;5.80;;;2.10;;
17854;SDS011;9053;53.358;6.382;2023-07-31T13:58:00;4.32;;;2.53;;
17854;SDS011;9053;53.358;6.382;2023-07-31T14:00:29;5.93;;;2.47;;
17854;SDS011;9053;53.358;6.382;2023-07-31T14:03:02;6.13;;;2.30;;
17854;SDS011;9053;53.358;6.382;2023-07-31T14:05:33;3.78;;;2.10;;
17854;SDS011;9053;53.358;6.382;2023-07-31T14:08:03;5.22;;;1.75;;
17854;SDS011;9053;53.358;6.382;2023-07-31T14:10:33;4.97;;;1.85;;
17854;SDS011;9053;53.358;6.382;2023-07-31T14:13:03;4.85;;;1.92;;
17854;SDS011;9053;53.358;6.382;2023-07-31T14:15:34;4.30;;;2.08;;
17854;SDS011;9053;53.358;6.382;2023-07-31T14:18:07;4.60;;;2.08;;
17854;SDS011;9053;53.358;6.382;2023-07-31T14:20:38;3.65;;;2.22;;
17854;SDS011;9053;53.358;6.382;2023-07-31T14:23:08;3.97;;;2.25;;
17854;SDS011;9053;53.358;6.382;2023-07-31T14:25:38;4.43;;;1.95;;
17854;SDS011;9053;53.358;6.382;2023-07-31T14:28:08;4.75;;;2.33;;
17854;SDS011;9053;53.358;6.382;2023-07-31T14:30:38;5.82;;;2.60;;
17854;SDS011;9053;53.358;6.382;2023-07-31T14:33:11;6.90;;;2.50;;
17854;SDS011;9053;53.358;6.382;2023-07-31T14:35:41;4.95;;;2.30;;
17854;SDS011;9053;53.358;6.382;2023-07-31T14:38:11;4.38;;;2.65;;
17854;SDS011;9053;53.358;6.382;2023-07-31T14:40:41;3.47;;;2.08;;
17854;SDS011;9053;53.358;6.382;2023-07-31T14:43:11;4.78;;;2.50;;
17854;SDS011;9053;53.358;6.382;2023-07-31T14:45:42;3.80;;;2.60;;
17854;SDS011;9053;53.358;6.382;2023-07-31T14:48:15;3.90;;;2.55;;
17854;SDS011;9053;53.358;6.382;2023-07-31T14:50:45;5.85;;;2.70;;
17854;SDS011;9053;53.358;6.382;2023-07-31T14:53:15;5.68;;;2.67;;
17854;SDS011;9053;53.358;6.382;2023-07-31T14:55:45;4.60;;;2.63;;
17854;SDS011;9053;53.358;6.382;2023-07-31T14:58:15;6.13;;;3.38;;
17854;SDS011;9053;53.358;6.382;2023-07-31T15:00:44;5.97;;;2.90;;
17854;SDS011;9053;53.358;6.382;2023-07-31T15:03:17;8.13;;;3.10;;
17854;SDS011;9053;53.358;6.382;2023-07-31T15:05:47;5.07;;;2.75;;
17854;SDS011;9053;53.358;6.382;2023-07-31T15:08:17;4.97;;;2.72;;
17854;SDS011;9053;53.358;6.382;2023-07-31T15:10:47;7.82;;;2.90;;
17854;SDS011;9053;53.358;6.382;2023-07-31T15:13:22;5.57;;;2.75;;
17854;SDS011;9053;53.358;6.382;2023-07-31T15:15:52;8.23;;;3.20;;
17854;SDS011;9053;53.358;6.382;2023-07-31T15:18:24;4.80;;;2.20;;
17854;SDS011;9053;53.358;6.382;2023-07-31T15:20:54;10.35;;;3.35;;
17854;SDS011;9053;53.358;6.382;2023-07-31T15:23:24;6.35;;;2.80;;
17854;SDS011;9053;53.358;6.382;2023-07-31T15:25:54;6.15;;;3.10;;
17854;SDS011;9053;53.358;6.382;2023-07-31T15:28:24;4.63;;;2.45;;